createdAt,value
2023-02-12T00:01:14.202Z,27.02
2023-02-12T00:04:00.891Z,26.23
2023-02-12T00:06:47.407Z,28.00
2023-02-12T00:09:35.232Z,26.20
2023-02-12T00:12:21.890Z,21.88
2023-02-12T00:15:09.525Z,23.25
2023-02-12T00:17:56.194Z,24.42
2023-02-12T00:20:42.709Z,26.40
2023-02-12T00:23:29.681Z,25.23
2023-02-12T00:26:19.133Z,21.38
2023-02-12T00:29:08.770Z,26.25
2023-02-12T00:31:55.282Z,24.17
2023-02-12T00:34:41.946Z,24.90
2023-02-12T00:37:28.319Z,24.48
2023-02-12T00:40:14.902Z,25.15
2023-02-12T00:43:02.773Z,26.92
2023-02-12T00:45:49.288Z,28.30
2023-02-12T00:48:36.523Z,20.60
2023-02-12T00:51:23.254Z,21.50
2023-02-12T00:54:09.461Z,24.50
2023-02-12T00:56:56.912Z,24.48
2023-02-12T00:59:44.976Z,26.70
2023-02-12T01:02:31.655Z,25.58
2023-02-12T01:05:19.550Z,25.65
2023-02-12T01:08:06.385Z,25.85
2023-02-12T01:10:57.630Z,26.08
2023-02-12T01:13:44.279Z,26.23
2023-02-12T01:16:36.505Z,23.45
2023-02-12T01:19:23.568Z,26.25
2023-02-12T01:22:10.301Z,25.45
2023-02-12T01:24:57.191Z,25.15
2023-02-12T01:27:44.056Z,23.55
2023-02-12T01:30:31.889Z,24.13
2023-02-12T01:33:21.032Z,29.85
2023-02-12T01:36:08.834Z,28.40
2023-02-12T01:38:55.581Z,21.35
2023-02-12T01:41:44.619Z,23.77
2023-02-12T01:44:32.581Z,25.83
2023-02-12T01:47:19.650Z,22.70
2023-02-12T01:50:10.996Z,24.70
2023-02-12T01:52:59.775Z,21.27
2023-02-12T01:55:46.656Z,24.08
2023-02-12T01:58:38.827Z,25.40
2023-02-12T02:01:28.474Z,25.25
2023-02-12T02:04:18.333Z,26.77
2023-02-12T02:07:08.186Z,28.15
2023-02-12T02:09:57.529Z,30.75
2023-02-12T02:13:05.210Z,31.52
2023-02-12T02:15:56.856Z,24.23
2023-02-12T02:18:48.167Z,30.52
2023-02-12T02:21:52.490Z,27.33
2023-02-12T02:24:59.161Z,25.60
2023-02-12T02:27:57.354Z,28.35
2023-02-12T02:30:51.730Z,32.17
2023-02-12T02:33:46.224Z,31.67
2023-02-12T02:36:47.882Z,24.17
2023-02-12T02:39:48.492Z,24.83
2023-02-12T02:42:40.207Z,34.75
2023-02-12T02:45:31.511Z,23.63
2023-02-12T02:48:23.345Z,29.00
2023-02-12T02:51:15.253Z,27.15
2023-02-12T02:54:08.932Z,25.00
2023-02-12T02:57:00.999Z,29.98
2023-02-12T02:59:54.406Z,25.75
2023-02-12T03:02:44.901Z,25.30
2023-02-12T03:08:27.738Z,26.42
2023-02-12T03:11:18.864Z,28.70
2023-02-12T03:14:11.225Z,27.35
2023-02-12T03:17:03.636Z,24.63
2023-02-12T03:19:57.989Z,29.30
2023-02-12T03:22:52.382Z,24.85
2023-02-12T03:25:45.520Z,26.75
2023-02-12T03:28:35.327Z,26.88
2023-02-12T03:31:43.825Z,26.08
2023-02-12T03:34:42.994Z,27.35
2023-02-12T03:37:34.661Z,26.42
2023-02-12T03:40:29.503Z,26.60
2023-02-12T03:43:28.186Z,24.90
2023-02-12T03:46:20.979Z,27.58
2023-02-12T03:49:12.486Z,28.30
2023-02-12T03:51:59.617Z,28.52
2023-02-12T03:54:46.299Z,24.98
2023-02-12T03:57:39.452Z,27.48
2023-02-12T04:00:26.670Z,25.25
2023-02-12T04:03:13.276Z,25.20
2023-02-12T04:05:59.779Z,25.33
2023-02-12T04:08:46.272Z,22.92
2023-02-12T04:11:49.125Z,22.63
2023-02-12T04:14:45.351Z,28.65
2023-02-12T04:17:41.356Z,24.50
2023-02-12T04:20:40.549Z,25.23
2023-02-12T04:23:44.872Z,25.88
2023-02-12T04:26:38.911Z,24.90
2023-02-12T04:29:33.860Z,24.23
2023-02-12T04:32:29.193Z,24.50
2023-02-12T04:35:21.597Z,24.05
2023-02-12T04:38:16.498Z,25.45
2023-02-12T04:41:05.738Z,24.13
2023-02-12T04:43:52.346Z,23.15
2023-02-12T04:46:39.111Z,20.65
2023-02-12T04:49:27.533Z,21.08
2023-02-12T04:52:14.446Z,23.50
2023-02-12T04:55:00.952Z,24.52
2023-02-12T04:57:48.028Z,24.50
2023-02-12T05:00:34.836Z,24.02
2023-02-12T05:03:21.425Z,24.98
2023-02-12T05:06:10.693Z,20.92
2023-02-12T05:08:57.676Z,23.58
2023-02-12T05:11:45.029Z,22.85
2023-02-12T05:14:31.576Z,26.38
2023-02-12T05:17:18.166Z,23.63
2023-02-12T05:20:05.619Z,23.90
2023-02-12T05:22:56.390Z,23.15
2023-02-12T05:25:42.583Z,21.88
2023-02-12T05:28:30.338Z,23.85
2023-02-12T05:31:21.262Z,21.38
2023-02-12T05:34:10.973Z,22.02
2023-02-12T05:36:57.509Z,23.48
2023-02-12T05:39:45.583Z,28.23
2023-02-12T05:42:32.122Z,23.48
2023-02-12T05:45:18.548Z,24.00
2023-02-12T05:48:05.513Z,21.85
2023-02-12T05:50:53.270Z,24.42
2023-02-12T05:53:41.264Z,25.92
2023-02-12T05:56:30.124Z,25.30
2023-02-12T05:59:19.181Z,30.15
2023-02-12T06:02:05.816Z,23.55
2023-02-12T06:04:52.616Z,26.92
2023-02-12T06:07:39.074Z,24.13
2023-02-12T06:10:25.912Z,22.25
2023-02-12T06:13:13.840Z,25.08
2023-02-12T06:16:01.295Z,23.95
2023-02-12T06:18:48.338Z,37.28
2023-02-12T06:21:35.004Z,31.45
2023-02-12T06:24:21.244Z,27.23
2023-02-12T06:27:07.826Z,24.58
2023-02-12T06:29:55.706Z,25.35
2023-02-12T06:32:42.222Z,23.58
2023-02-12T06:35:29.509Z,22.10
2023-02-12T06:38:16.025Z,28.08
2023-02-12T06:41:03.501Z,25.88
2023-02-12T06:43:50.739Z,24.63
2023-02-12T06:46:38.847Z,23.42
2023-02-12T06:49:25.978Z,26.02
2023-02-12T06:52:14.104Z,27.83
2023-02-12T06:55:00.898Z,25.35
2023-02-12T06:57:47.691Z,27.27
2023-02-12T07:00:34.260Z,22.88
2023-02-12T07:03:22.138Z,23.23
2023-02-12T07:06:10.058Z,26.00
2023-02-12T07:08:56.892Z,25.48
2023-02-12T07:11:43.454Z,25.88
2023-02-12T07:14:29.911Z,26.50
2023-02-12T07:17:17.080Z,24.80
2023-02-12T07:20:05.183Z,25.42
2023-02-12T07:22:51.822Z,30.08
2023-02-12T07:25:38.420Z,29.27
2023-02-12T07:28:25.475Z,45.30
2023-02-12T07:31:15.684Z,27.92
2023-02-12T07:36:50.393Z,29.13
2023-02-12T07:39:36.920Z,26.83
2023-02-12T07:42:23.571Z,25.00
2023-02-12T07:45:11.168Z,29.02
2023-02-12T07:47:57.843Z,25.85
2023-02-12T07:50:44.399Z,25.38
2023-02-12T07:53:32.518Z,28.05
2023-02-12T07:56:21.901Z,23.60
2023-02-12T07:59:11.583Z,26.80
2023-02-12T08:01:58.371Z,35.38
2023-02-12T08:04:45.071Z,26.85
2023-02-12T08:07:31.490Z,27.17
2023-02-12T08:10:22.285Z,25.80
2023-02-12T08:13:08.741Z,25.75
2023-02-12T08:16:01.322Z,27.05
2023-02-12T08:18:48.560Z,24.77
2023-02-12T08:21:35.549Z,25.83
2023-02-12T08:24:22.878Z,26.00
2023-02-12T08:27:10.936Z,28.58
2023-02-12T08:29:57.663Z,26.50
2023-02-12T08:32:44.257Z,25.30
2023-02-12T08:35:30.797Z,22.70
2023-02-12T08:38:17.382Z,26.63
2023-02-12T08:41:05.061Z,23.13
2023-02-12T08:43:55.068Z,22.33
2023-02-12T08:46:45.997Z,22.80
2023-02-12T08:49:32.692Z,21.33
2023-02-12T08:52:19.602Z,24.70
2023-02-12T08:55:06.210Z,23.52
2023-02-12T08:57:57.826Z,25.70
2023-02-12T09:00:45.972Z,21.45
2023-02-12T09:03:32.616Z,26.52
2023-02-12T09:06:21.048Z,23.95
2023-02-12T09:09:08.230Z,21.90
2023-02-12T09:11:54.652Z,20.85
2023-02-12T09:14:40.987Z,23.27
2023-02-12T09:17:29.352Z,24.25
2023-02-12T09:20:16.310Z,21.65
2023-02-12T09:23:02.677Z,21.42
2023-02-12T09:25:49.134Z,25.20
2023-02-12T09:28:36.555Z,23.63
2023-02-12T09:31:26.533Z,29.00
2023-02-12T09:34:14.522Z,23.38
2023-02-12T09:37:00.942Z,24.33
2023-02-12T09:39:49.561Z,22.95
2023-02-12T09:45:37.602Z,23.40
2023-02-12T09:48:40.362Z,23.60
2023-02-12T09:51:30.205Z,22.35
2023-02-12T09:54:20.442Z,22.77
2023-02-12T09:57:15.928Z,25.98
2023-02-12T10:00:06.624Z,22.95
2023-02-12T10:02:55.009Z,27.15
2023-02-12T10:05:45.967Z,23.25
2023-02-12T10:08:50.972Z,21.58
2023-02-12T10:11:48.341Z,25.63
2023-02-12T10:15:03.192Z,23.23
2023-02-12T10:17:59.182Z,25.05
2023-02-12T10:20:55.944Z,22.35
2023-02-12T10:24:01.989Z,23.48
2023-02-12T10:26:50.519Z,24.65
2023-02-12T10:29:42.405Z,21.42
2023-02-12T10:32:32.864Z,22.65
2023-02-12T10:35:22.054Z,20.40
2023-02-12T10:38:17.067Z,20.63
2023-02-12T10:41:05.213Z,25.73
2023-02-12T10:43:51.755Z,22.10
2023-02-12T10:46:38.656Z,26.38
2023-02-12T10:49:25.100Z,22.85
2023-02-12T10:52:16.401Z,24.05
2023-02-12T10:55:03.019Z,22.90
2023-02-12T10:57:51.364Z,20.80
2023-02-12T11:00:39.617Z,18.27
2023-02-12T11:03:30.721Z,18.30
2023-02-12T11:06:20.011Z,22.77
2023-02-12T11:09:06.474Z,17.48
2023-02-12T11:11:53.130Z,22.73
2023-02-12T11:14:43.375Z,19.50
2023-02-12T11:17:35.818Z,22.33
2023-02-12T11:20:26.077Z,20.67
2023-02-12T11:23:26.469Z,23.40
2023-02-12T11:29:20.345Z,19.80
2023-02-12T11:32:12.315Z,20.95
2023-02-12T11:35:07.040Z,20.45
2023-02-12T11:37:55.937Z,21.38
2023-02-12T11:40:47.331Z,18.20
2023-02-12T11:43:38.378Z,18.80
2023-02-12T11:46:27.789Z,21.60
2023-02-12T11:49:22.381Z,19.30
2023-02-12T11:52:18.423Z,18.85
2023-02-12T11:55:09.538Z,19.60
2023-02-12T11:58:04.469Z,19.02
2023-02-12T12:00:56.050Z,21.65
2023-02-12T12:03:50.707Z,17.92
2023-02-12T12:06:44.368Z,20.45
2023-02-12T12:09:36.998Z,19.58
2023-02-12T12:12:30.372Z,15.95
2023-02-12T12:15:41.216Z,18.50
2023-02-12T12:18:52.989Z,16.38
2023-02-12T12:21:46.720Z,22.77
2023-02-12T12:24:43.014Z,17.92
2023-02-12T12:27:54.001Z,18.27
2023-02-12T12:30:53.881Z,19.00
2023-02-12T12:33:44.397Z,19.15
2023-02-12T12:39:48.389Z,15.55
2023-02-12T12:43:00.816Z,17.48
2023-02-12T12:46:29.482Z,18.52
2023-02-12T12:49:32.045Z,18.75
2023-02-12T12:52:46.241Z,18.38
2023-02-12T12:55:52.717Z,18.90
2023-02-12T12:58:54.075Z,21.48
2023-02-12T13:01:57.561Z,18.25
2023-02-12T13:05:00.536Z,20.08
2023-02-12T13:08:00.082Z,18.40
2023-02-12T13:10:51.663Z,18.92
2023-02-12T13:13:42.772Z,19.70
2023-02-12T13:16:34.792Z,19.77
2023-02-12T13:19:33.615Z,20.75
2023-02-12T13:22:29.351Z,19.17
2023-02-12T13:25:25.927Z,14.95
2023-02-12T13:28:17.097Z,20.45
2023-02-12T13:31:30.018Z,15.23
2023-02-12T13:34:18.351Z,16.42
2023-02-12T13:37:07.641Z,16.63
2023-02-12T13:39:54.270Z,15.32
2023-02-12T13:42:49.056Z,18.98
2023-02-12T13:45:45.705Z,15.98
2023-02-12T13:48:43.036Z,16.02
2023-02-12T13:51:40.716Z,16.20
2023-02-12T13:54:39.114Z,18.55
2023-02-12T13:57:25.338Z,14.25
2023-02-12T14:00:50.746Z,15.57
2023-02-12T14:03:39.842Z,15.75
2023-02-12T14:06:26.453Z,15.13
2023-02-12T14:09:23.956Z,17.55
2023-02-12T14:12:14.537Z,14.35
2023-02-12T14:15:07.824Z,16.73
2023-02-12T14:17:56.582Z,15.32
2023-02-12T14:20:44.770Z,15.27
2023-02-12T14:23:34.878Z,15.63
2023-02-12T14:26:23.152Z,16.70
2023-02-12T14:29:21.014Z,16.15
2023-02-12T14:33:00.425Z,14.88
2023-02-12T14:35:51.093Z,15.15
2023-02-12T14:39:02.836Z,17.73
2023-02-12T14:41:52.238Z,17.73
2023-02-12T14:44:46.033Z,18.75
2023-02-12T14:47:50.822Z,26.27
2023-02-12T14:50:42.871Z,18.77
2023-02-12T14:53:34.020Z,21.27
2023-02-12T14:56:22.864Z,18.40
2023-02-12T14:59:18.022Z,18.05
2023-02-12T15:02:07.313Z,19.48
2023-02-12T15:04:57.518Z,22.08
2023-02-12T15:07:48.880Z,19.40
2023-02-12T15:10:42.538Z,20.40
2023-02-12T15:13:34.656Z,18.98
2023-02-12T15:16:30.871Z,21.83
2023-02-12T15:19:32.429Z,21.70
2023-02-12T15:22:22.545Z,19.25
2023-02-12T15:25:16.537Z,20.55
2023-02-12T15:28:18.816Z,16.27
2023-02-12T15:31:10.419Z,22.17
2023-02-12T15:33:59.173Z,19.98
2023-02-12T15:36:47.033Z,23.20
2023-02-12T15:39:40.749Z,19.98
2023-02-12T15:42:30.770Z,19.38
2023-02-12T15:45:23.915Z,18.33
2023-02-12T15:48:17.254Z,20.77
2023-02-12T15:51:11.097Z,19.98
2023-02-12T15:54:01.401Z,20.73
2023-02-12T15:56:48.472Z,21.63
2023-02-12T15:59:35.025Z,20.48
2023-02-12T16:02:27.337Z,22.98
2023-02-12T16:05:17.673Z,22.80
2023-02-12T16:08:04.554Z,21.88
2023-02-12T16:10:54.240Z,20.23
2023-02-12T16:13:45.180Z,22.45
2023-02-12T16:16:40.202Z,23.30
2023-02-12T16:19:29.786Z,24.92
2023-02-12T16:22:19.449Z,21.80
2023-02-12T16:25:16.749Z,32.28
2023-02-12T16:28:06.208Z,27.15
2023-02-12T16:30:53.563Z,25.13
2023-02-12T16:33:47.786Z,27.00
2023-02-12T16:36:35.384Z,29.63
2023-02-12T16:40:05.097Z,21.63
2023-02-12T16:42:59.462Z,23.60
2023-02-12T16:45:46.699Z,23.40
2023-02-12T16:48:39.300Z,24.60
2023-02-12T16:51:28.925Z,28.17
2023-02-12T16:54:31.262Z,29.47
2023-02-12T16:57:17.997Z,26.17
2023-02-12T17:00:05.146Z,23.63
2023-02-12T17:02:51.726Z,26.67
2023-02-12T17:05:38.235Z,22.95
2023-02-12T17:08:25.734Z,21.75
2023-02-12T17:11:14.183Z,26.13
2023-02-12T17:14:00.357Z,30.45
2023-02-12T17:16:47.520Z,32.08
2023-02-12T17:19:34.857Z,25.92
2023-02-12T17:22:24.183Z,25.60
2023-02-12T17:25:11.143Z,28.25
2023-02-12T17:27:59.600Z,28.88
2023-02-12T17:30:46.600Z,29.55
2023-02-12T17:33:33.330Z,28.02
2023-02-12T17:36:20.172Z,29.77
2023-02-12T17:39:08.833Z,28.13
2023-02-12T17:41:55.484Z,24.83
2023-02-12T17:44:43.361Z,30.73
2023-02-12T17:47:31.344Z,29.88
2023-02-12T17:50:19.483Z,25.42
2023-02-12T17:53:06.304Z,33.05
2023-02-12T17:55:53.007Z,31.52
2023-02-12T17:58:40.482Z,27.50
2023-02-12T18:01:28.792Z,26.77
2023-02-12T18:04:15.676Z,32.50
2023-02-12T18:07:02.413Z,28.83
2023-02-12T18:09:49.353Z,34.05
2023-02-12T18:12:36.477Z,29.45
2023-02-12T18:15:22.986Z,29.08
2023-02-12T18:18:11.428Z,29.02
2023-02-12T18:20:58.208Z,31.70
2023-02-12T18:23:45.141Z,29.38
2023-02-12T18:26:32.442Z,29.95
2023-02-12T18:29:19.022Z,31.73
2023-02-12T18:32:05.920Z,30.13
2023-02-12T18:34:54.010Z,38.83
2023-02-12T18:37:43.239Z,31.85
2023-02-12T18:40:30.002Z,32.15
2023-02-12T18:43:16.580Z,32.97
2023-02-12T18:46:07.366Z,34.78
2023-02-12T18:48:54.881Z,34.35
2023-02-12T18:51:42.765Z,32.03
2023-02-12T18:54:29.118Z,37.75
2023-02-12T18:57:15.963Z,32.13
2023-02-12T19:00:02.900Z,34.35
2023-02-12T19:02:49.413Z,34.22
2023-02-12T19:05:36.218Z,29.98
2023-02-12T19:08:24.096Z,32.35
2023-02-12T19:11:11.636Z,38.05
2023-02-12T19:13:58.696Z,38.65
2023-02-12T19:16:46.081Z,34.15
2023-02-12T19:19:32.791Z,34.92
2023-02-12T19:22:19.595Z,34.97
2023-02-12T19:25:08.209Z,33.08
2023-02-12T19:27:54.980Z,34.30
2023-02-12T19:30:42.646Z,33.08
2023-02-12T19:33:29.305Z,35.90
2023-02-12T19:36:18.958Z,34.63
2023-02-12T19:39:06.467Z,32.87
2023-02-12T19:41:56.223Z,35.20
2023-02-12T19:44:42.999Z,30.20
2023-02-12T19:47:29.596Z,33.40
2023-02-12T19:50:16.113Z,33.17
2023-02-12T19:53:02.824Z,34.55
2023-02-12T19:55:49.405Z,31.83
2023-02-12T19:58:37.636Z,31.88
2023-02-12T20:01:24.770Z,33.67
2023-02-12T20:04:13.347Z,34.53
2023-02-12T20:06:59.923Z,34.85
2023-02-12T20:09:46.591Z,37.85
2023-02-12T20:12:33.579Z,31.25
2023-02-12T20:15:25.456Z,36.55
2023-02-12T20:18:12.588Z,33.63
2023-02-12T20:20:59.521Z,35.08
2023-02-12T20:23:46.078Z,35.35
2023-02-12T20:26:33.849Z,35.45
2023-02-12T20:29:20.731Z,35.03
2023-02-12T20:32:09.132Z,34.67
2023-02-12T20:34:56.162Z,34.65
2023-02-12T20:37:45.714Z,29.38
2023-02-12T20:40:32.597Z,37.17
2023-02-12T20:43:19.603Z,36.25
2023-02-12T20:46:08.040Z,35.13
2023-02-12T20:48:57.562Z,29.80
2023-02-12T20:51:45.368Z,34.28
2023-02-12T20:54:37.987Z,34.65
2023-02-12T20:57:24.693Z,30.40
2023-02-12T21:00:12.587Z,31.08
2023-02-12T21:03:03.783Z,32.38
2023-02-12T21:05:51.945Z,32.75
2023-02-12T21:08:39.626Z,34.08
2023-02-12T21:11:28.003Z,36.13
2023-02-12T21:14:24.123Z,35.28
2023-02-12T21:17:11.512Z,30.55
2023-02-12T21:19:58.480Z,36.88
2023-02-12T21:22:46.907Z,31.65
2023-02-12T21:25:33.399Z,34.97
2023-02-12T21:28:20.007Z,33.47
2023-02-12T21:31:08.921Z,33.40
2023-02-12T21:33:56.925Z,34.60
2023-02-12T21:36:46.350Z,34.53
2023-02-12T21:39:34.542Z,33.65
2023-02-12T21:42:20.903Z,31.35
2023-02-12T21:45:08.183Z,31.80
2023-02-12T21:47:54.744Z,29.58
2023-02-12T21:50:41.828Z,30.52
2023-02-12T21:53:30.450Z,33.00
2023-02-12T21:56:19.152Z,31.98
2023-02-12T21:59:06.603Z,31.33
2023-02-12T22:01:55.188Z,30.77
2023-02-12T22:04:42.010Z,31.05
2023-02-12T22:07:28.221Z,36.83
2023-02-12T22:10:15.081Z,31.75
2023-02-12T22:13:02.805Z,31.77
2023-02-12T22:15:49.016Z,35.85
2023-02-12T22:18:35.812Z,37.50
2023-02-12T22:21:23.615Z,35.28
2023-02-12T22:24:12.694Z,38.00
2023-02-12T22:26:59.129Z,36.80
2023-02-12T22:29:47.063Z,37.42
2023-02-12T22:32:35.904Z,36.17
2023-02-12T22:35:22.249Z,35.40
2023-02-12T22:38:08.786Z,34.60
2023-02-12T22:40:55.934Z,42.22
2023-02-12T22:43:42.871Z,36.25
2023-02-12T22:46:30.783Z,36.70
2023-02-12T22:49:17.803Z,37.17
2023-02-12T22:52:04.094Z,38.80
2023-02-12T22:54:50.737Z,39.25
2023-02-12T22:57:37.354Z,39.08
2023-02-12T23:03:42.388Z,33.90
2023-02-12T23:06:31.296Z,37.58
2023-02-12T23:09:19.744Z,33.67
2023-02-12T23:12:07.907Z,41.15
2023-02-12T23:14:54.518Z,34.38
2023-02-12T23:17:41.018Z,35.92
2023-02-12T23:20:28.808Z,40.38
2023-02-12T23:23:15.396Z,37.78
2023-02-12T23:26:02.021Z,35.00
2023-02-12T23:28:48.832Z,38.55
2023-02-12T23:31:35.363Z,38.35
2023-02-12T23:34:21.848Z,37.40
2023-02-12T23:37:09.770Z,38.55
2023-02-12T23:39:56.268Z,39.13
2023-02-12T23:42:42.806Z,37.53
2023-02-12T23:45:30.098Z,36.05
2023-02-12T23:48:16.667Z,35.95
2023-02-12T23:51:03.288Z,34.55
2023-02-12T23:53:51.119Z,37.78
2023-02-12T23:56:37.569Z,31.63
2023-02-12T23:59:25.854Z,32.17
